Strona główna
METAR-TAF:

METAR-TAF

Lotnisko :

Parauapebas, Pará, Brazylia

Szerokość geograficzna: 06-07S, Długość geograficzna: 050-00W, wysokość: 621 m

Aktualna obserwacja pogody

Raport powstał 15 minut temu, godzina 11:00 UTC
Wiatr 1 kt od południowo-południowy zachód
Temperatura 25°C
Wilgotność 83%
Ciśnienie 1016 hPa
Widzialność 10 km lub więcej
Rozproszone chmury na wysokości 2500 ft

METAR: SBCJ 031100Z 20001KT 9999 SCT025 25/22 Q1016

czas: 08:15 (11:15 UTC)

Prognoza

Raport powstał 8 godziny i 15 minut temu, godzina 03:00 UTC
Prognoza ważna od 03 godzina 06 UTC do 03 godzina 18 UTC
Wiatr 5 kt od wschodnio-południowy wschód
Widzialność 10 km lub więcej
Rozproszone chmury na wysokości 1700 ft
Stopniowe zmiany
od 03 godzina 15 UTC do 03 godzina 17 UTC
Wiatr 10 kt od południowy wschód
Widzialność: 8000 m
Rozproszone chmury na wysokości 1700 ft
Mało chmury na wysokości 2500 ft, Cumulusy wypiętrznone.

TAF: SBCJ 030300Z 0306/0318 12005KT 9999 SCT017 TN24/0311Z TX28/0318Z BECMG 0315/0317 13010KT 8000 SCT017 FEW025TCU RMK PHN

Obserwacja i prognoza pogody dla ponad 4000 lotnisk (raport METAR i TAF).

Dostępne stacje oznaczono żółtymi i czerwonymi punktami na mapie.

Najedź kursorem aby zobaczyć nazwę stacji.

Kliknij aby zobaczyć obserwacje i prognozy pogody.

Aby zmienić mapę: kliknij na zielony przycisk z czarnym krzyżykiem, aby powiększyć; na zielony przycisk z myślnikiem, aby pomniejszyć; na zielone strzałki, aby przejść do map sąsiednich.


METAR-TAF: